.
WxDataArchive / Data Records for 2008-09-13
2008-09-12 September 2008 2008-09-14

Data Records for Saturday, 13 September 2008

Time	Temp	Chill	HIndex	Humid	Dewpt	 Wind 	HiWind	WindDir	Rain 	Barom 
-----	----	-----	------	-----	-----	------	------	-------	-----	----- 
00:00	68.6	68.6	68.6	96	67.4	0	1	315	0.00	29.919 
00:05	68.6	68.6	68.6	96	67.4	0	1	315	0.00	29.919 
00:10	68.6	68.6	68.6	96	67.4	0	0	---	0.00	29.919 
00:15	68.6	68.6	68.6	96	67.4	0	1	315	0.00	29.918 
00:20	68.8	68.8	68.8	97	67.9	0	1	315	0.01	29.918 
00:25	68.8	68.8	68.8	97	67.9	0	1	315	0.00	29.918 
00:30	68.8	68.8	68.8	97	67.9	0	0	---	0.00	29.907 
00:35	68.8	68.8	68.8	97	67.9	0	1	315	0.00	29.907 
00:40	68.8	68.8	68.8	97	67.9	0	0	---	0.01	29.907 
00:45	68.9	68.9	68.9	97	68.0	0	0	---	0.00	29.906 
00:50	68.9	68.9	68.9	97	68.0	0	1	315	0.00	29.906 
00:55	68.9	68.9	68.9	97	68.0	0	0	---	0.00	29.906 
01:00	68.9	68.9	68.9	97	68.0	0	0	---	0.00	29.905 
01:05	68.9	68.9	68.9	97	68.0	0	0	---	0.00	29.905 
01:10	68.9	68.9	68.9	97	68.0	0	0	---	0.01	29.905 
01:15	68.9	68.9	68.9	97	68.0	0	0	---	0.00	29.897 
01:20	68.9	68.9	68.9	97	68.0	0	1	315	0.00	29.897 
01:25	68.9	68.9	68.9	97	68.0	0	1	315	0.00	29.897 
01:30	68.8	68.8	68.8	97	67.9	0	1	315	0.00	29.891 
01:35	68.8	68.8	68.8	97	67.9	0	1	315	0.00	29.891 
01:40	68.8	68.8	68.8	97	67.9	0	1	315	0.02	29.891 
01:45	68.8	68.8	68.8	97	67.9	0	0	---	0.01	29.890 
01:50	68.8	68.8	68.8	97	67.9	0	0	---	0.00	29.890 
01:55	68.8	68.8	68.8	97	67.9	0	0	---	0.00	29.890 
02:00	68.6	68.6	68.6	97	67.7	0	0	---	0.00	29.877 
02:05	68.6	68.6	68.6	97	67.7	0	0	---	0.00	29.877 
02:10	68.6	68.6	68.6	97	67.7	0	0	---	0.00	29.877 
02:15	68.4	68.4	68.4	97	67.5	0	0	---	0.00	29.870 
02:20	68.6	68.6	68.6	97	67.7	0	0	---	0.01	29.870 
02:25	68.6	68.6	68.6	97	67.7	0	0	---	0.02	29.870 
02:30	68.6	68.6	68.6	97	67.7	0	0	---	0.00	29.863 
02:35	68.6	68.6	68.6	97	67.7	0	0	---	0.00	29.863 
02:40	68.6	68.6	68.6	97	67.7	0	1	315	0.00	29.863 
02:45	68.6	68.6	68.6	97	67.7	0	1	315	0.00	29.856 
02:50	68.4	68.4	68.4	97	67.5	0	0	---	0.00	29.856 
02:55	68.4	68.4	68.4	97	67.5	0	0	---	0.00	29.856 
03:00	68.4	68.4	68.4	97	67.5	0	1	315	0.00	29.853 
03:05	68.4	68.4	68.4	97	67.5	0	3	315	0.00	29.853 
03:10	68.4	68.4	68.4	97	67.5	0	1	0	0.01	29.853 
03:15	68.3	68.3	68.3	97	67.4	0	0	---	0.00	29.854 
03:20	68.3	68.3	68.3	97	67.4	0	1	0	0.01	29.854 
03:25	68.4	68.4	68.4	97	67.5	0	1	0	0.07	29.854 
03:30	68.4	68.4	68.4	97	67.5	0	0	---	0.04	29.872 
03:35	68.3	68.3	68.3	97	67.4	0	0	---	0.02	29.872 
03:40	68.3	68.3	68.3	97	67.4	0	1	0	0.01	29.872 
03:45	68.3	68.3	68.3	97	67.4	0	1	0	0.01	29.870 
03:50	68.3	68.3	68.3	97	67.4	0	0	---	0.01	29.870 
03:55	68.4	68.4	68.4	97	67.5	0	0	---	0.00	29.870 
04:00	68.4	68.4	68.4	97	67.5	0	0	---	0.02	29.873 
04:05	68.4	68.4	68.4	97	67.5	0	2	0	0.03	29.873 
04:10	68.4	68.4	68.4	97	67.5	0	2	0	0.01	29.873 
04:15	68.4	68.4	68.4	97	67.5	0	2	0	0.02	29.857 
04:20	68.3	68.3	68.3	97	67.4	0	3	0	0.05	29.857 
04:25	68.3	68.3	68.3	97	67.4	0	1	158	0.02	29.857 
04:30	68.3	68.3	68.3	97	67.4	0	2	338	0.05	29.859 
04:35	68.3	68.3	68.3	97	67.4	1	4	338	0.13	29.859 
04:40	68.3	68.3	68.3	97	67.4	0	2	90	0.03	29.859 
04:45	68.3	68.3	68.3	97	67.4	0	2	90	0.07	29.841 
04:50	68.3	68.3	68.3	97	67.4	0	3	68	0.09	29.841 
04:55	68.3	68.3	68.3	97	67.4	0	2	68	0.24	29.841 
05:00	68.3	68.3	68.3	97	67.4	2	3	68	0.11	29.836 
05:05	68.4	68.4	68.4	97	67.5	1	2	68	0.07	29.836 
05:10	68.4	68.4	68.4	97	67.5	0	2	68	0.01	29.836 
05:15	68.4	68.4	68.4	97	67.5	1	4	68	0.00	29.828 
05:20	68.4	68.4	68.4	97	67.5	1	3	68	0.01	29.828 
05:25	68.6	68.6	68.6	97	67.7	0	0	---	0.00	29.828 
05:30	68.6	68.6	68.6	97	67.7	0	1	68	0.00	29.831 
05:35	68.4	68.4	68.4	97	67.5	0	2	68	0.00	29.831 
05:40	68.3	68.3	68.3	97	67.4	0	3	68	0.02	29.831 
05:45	68.1	68.1	68.1	97	67.2	1	3	68	0.03	29.832 
05:50	68.1	68.1	68.1	97	67.2	0	2	68	0.01	29.832 
05:55	68.1	68.1	68.1	97	67.2	0	2	68	0.00	29.832 
06:00	68.1	68.1	68.1	97	67.2	0	1	68	0.00	29.832 
06:05	68.1	68.1	68.1	97	67.2	0	2	68	0.00	29.832 
06:10	68.1	68.1	68.1	97	67.2	0	1	68	0.00	29.832 
06:15	68.1	68.1	68.1	97	67.2	1	3	68	0.00	29.831 
06:20	68.1	68.1	68.1	97	67.2	0	1	68	0.00	29.831 
06:25	68.1	68.1	68.1	97	67.2	1	3	135	0.00	29.831 
06:30	68.3	68.3	68.3	97	67.4	1	3	90	0.00	29.828 
06:35	68.3	68.3	68.3	97	67.4	2	5	90	0.00	29.828 
06:40	68.3	68.3	68.3	97	67.4	1	3	68	0.00	29.828 
06:45	68.3	68.3	68.3	97	67.4	1	4	68	0.00	29.829 
06:50	68.3	68.3	68.3	97	67.4	1	3	68	0.00	29.829 
06:55	68.3	68.3	68.3	97	67.4	1	3	68	0.00	29.829 
07:00	68.3	68.3	68.3	97	67.4	1	3	90	0.00	29.828 
07:05	68.3	68.3	68.3	97	67.4	1	3	90	0.00	29.828 
07:10	68.3	68.3	68.3	97	67.4	1	2	90	0.00	29.828 
07:15	68.3	68.3	68.3	97	67.4	1	4	90	0.00	29.827 
07:20	68.3	68.3	68.3	97	67.4	0	2	90	0.00	29.827 
07:25	68.3	68.3	68.3	97	67.4	1	4	90	0.00	29.827 
07:30	68.4	68.4	68.4	97	67.5	0	2	90	0.00	29.819 
07:35	68.4	68.4	68.4	97	67.5	1	2	90	0.00	29.819 
07:40	68.6	68.6	68.6	97	67.7	0	2	90	0.00	29.819 
07:45	68.6	68.6	68.6	97	67.7	0	2	90	0.00	29.810 
07:50	68.8	68.8	68.8	97	67.9	0	4	90	0.00	29.810 
07:55	68.8	68.8	68.8	97	67.9	0	1	90	0.00	29.810 
08:00	68.9	68.9	68.9	97	68.0	0	3	90	0.00	29.809 
08:05	69.1	69.1	69.1	97	68.2	0	1	90	0.00	29.809 
08:10	69.1	69.1	69.1	97	68.2	0	2	90	0.00	29.809 
08:15	69.3	69.3	69.3	97	68.4	0	2	90	0.00	29.802 
08:20	69.4	69.4	69.4	97	68.5	1	3	90	0.02	29.802 
08:25	69.6	69.6	69.6	97	68.7	0	2	90	0.02	29.802 
08:30	69.6	69.6	69.6	97	68.7	0	2	90	0.02	29.788 
08:35	69.8	69.8	69.8	97	68.9	0	3	90	0.00	29.788 
08:40	69.9	69.9	69.9	97	69.0	0	1	90	0.00	29.788 
08:45	70.1	70.1	70.1	97	69.2	0	2	90	0.01	29.787 
08:50	70.1	70.1	70.1	97	69.2	0	3	90	0.01	29.787 
08:55	70.3	70.3	70.3	97	69.4	0	2	90	0.01	29.787 
09:00	70.4	70.4	70.4	98	69.8	0	3	90	0.01	29.791 
09:05	70.4	70.4	70.4	98	69.8	0	2	90	0.01	29.791 
09:10	70.6	70.6	70.6	98	70.0	0	2	90	0.01	29.791 
09:15	70.8	70.8	70.8	98	70.2	1	3	90	0.00	29.782 
09:20	70.9	70.9	70.9	98	70.3	1	3	90	0.00	29.782 
09:25	71.1	71.1	71.1	98	70.5	1	3	112	0.00	29.782 
09:30	71.3	71.3	71.3	98	70.7	1	4	112	0.00	29.784 
09:35	71.3	71.3	71.3	98	70.7	0	3	112	0.00	29.784 
09:40	71.5	71.5	71.5	98	70.9	0	2	90	0.00	29.784 
09:45	71.6	71.6	71.6	98	71.0	0	1	90	0.00	29.779 
09:50	71.8	71.8	71.8	98	71.2	0	2	90	0.00	29.779 
09:55	72.1	72.1	72.1	98	71.5	0	1	90	0.00	29.779 
10:00	72.3	72.3	72.3	98	71.7	0	2	90	0.00	29.775 
10:05	72.3	72.3	72.3	98	71.7	0	1	225	0.00	29.775 
10:10	72.5	72.5	72.5	98	71.9	0	2	225	0.00	29.775 
10:15	72.7	72.7	72.7	98	72.1	1	3	225	0.00	29.774 
10:20	73.0	73.0	73.0	98	72.4	1	4	248	0.00	29.774 
10:25	73.3	73.3	73.3	98	72.7	1	4	248	0.00	29.774 
10:30	73.7	73.7	73.7	98	73.1	1	3	248	0.00	29.773 
10:35	73.7	73.7	73.7	98	73.1	1	5	248	0.00	29.773 
10:40	73.7	73.7	73.7	98	73.1	1	4	248	0.00	29.773 
10:45	73.9	73.9	73.9	98	73.3	1	4	292	0.00	29.767 
10:50	73.9	73.9	73.9	98	73.3	1	3	270	0.00	29.767 
10:55	74.0	74.0	74.0	97	73.1	1	6	248	0.00	29.767 
11:00	74.0	74.0	74.0	97	73.1	1	4	248	0.00	29.763 
11:05	74.4	74.4	74.4	97	73.5	1	5	248	0.00	29.763 
11:10	74.6	74.6	74.6	97	73.7	1	4	270	0.00	29.763 
11:15	74.7	74.7	74.7	97	73.8	1	3	270	0.00	29.757 
11:20	74.7	74.7	74.7	97	73.8	1	5	225	0.00	29.757 
11:25	74.7	74.7	74.7	97	73.8	1	4	248	0.00	29.757 
11:30	74.9	74.9	74.9	97	74.0	1	4	270	0.00	29.755 
11:35	75.3	75.3	73.7	96	74.1	1	2	270	0.00	29.755 
11:40	75.3	75.3	73.7	96	74.1	1	4	248	0.00	29.755 
11:45	75.4	75.4	73.9	96	74.2	1	3	248	0.00	29.749 
11:50	75.8	75.8	75.0	95	74.3	1	4	225	0.00	29.749 
11:55	76.1	76.1	75.7	95	74.6	1	4	248	0.00	29.749 
12:00	76.5	76.5	76.8	94	74.6	1	4	270	0.00	29.743 
12:05	76.7	76.7	77.4	92	74.2	2	4	248	0.00	29.743 
12:10	77.0	77.0	78.2	90	73.8	1	5	270	0.00	29.743 
12:15	77.6	77.6	79.6	88	73.8	2	5	248	0.00	29.742 
12:20	78.1	78.1	80.6	85	73.2	2	5	270	0.00	29.742 
12:25	78.3	78.3	81.0	84	73.1	1	4	248	0.00	29.742 
12:30	78.5	78.5	81.4	83	72.9	1	5	248	0.00	29.737 
12:35	78.8	78.8	81.9	82	72.8	1	4	270	0.00	29.737 
12:40	79.0	79.0	82.3	82	73.0	1	2	270	0.00	29.737 
12:45	79.4	79.4	83.1	81	73.0	1	5	248	0.00	29.735 
12:50	79.6	79.6	83.4	80	72.9	1	4	248	0.00	29.735 
12:55	79.8	79.8	83.4	77	71.9	2	4	248	0.00	29.735 
13:00	80.3	80.3	84.1	75	71.6	2	5	248	0.00	29.732 
13:05	80.9	80.9	85.3	75	72.2	1	4	270	0.00	29.732 
13:10	81.2	81.2	85.5	73	71.7	2	5	248	0.00	29.732 
13:15	81.8	81.8	86.1	70	71.0	2	6	248	0.00	29.726 
13:20	82.2	82.2	86.1	67	70.1	2	5	270	0.00	29.726 
13:25	82.6	82.6	86.9	67	70.5	3	10	270	0.00	29.726 
13:30	83.2	83.2	87.5	65	70.2	2	6	248	0.00	29.721 
13:35	83.8	83.8	88.3	64	70.3	2	6	248	0.00	29.721 
13:40	84.5	84.5	89.0	62	70.0	3	9	248	0.00	29.721 
13:45	84.7	84.7	88.1	58	68.3	3	7	270	0.00	29.714 
13:50	84.3	84.3	87.2	57	67.4	3	11	270	0.00	29.714 
13:55	84.1	84.1	87.2	58	67.7	3	8	270	0.00	29.714 
14:00	84.5	84.5	87.8	58	68.1	2	6	270	0.00	29.707 
14:05	84.7	84.7	88.1	58	68.3	2	3	270	0.00	29.707 
14:10	85.1	85.1	88.8	58	68.6	3	11	270	0.00	29.707 
14:15	85.5	85.5	88.3	54	66.9	5	13	270	0.00	29.700 
14:20	86.1	86.1	89.6	55	68.0	3	6	270	0.00	29.700 
14:25	86.5	86.5	89.9	54	67.8	4	14	270	0.00	29.700 
14:30	86.7	86.7	90.3	54	68.0	3	10	270	0.00	29.690 
14:35	87.0	87.0	90.8	54	68.3	2	7	248	0.00	29.690 
14:40	86.7	86.7	89.6	52	66.9	3	8	270	0.00	29.690 
14:45	86.5	86.5	89.3	52	66.7	4	11	270	0.00	29.689 
14:50	86.5	86.5	88.9	51	66.2	4	10	270	0.00	29.689 
14:55	86.5	86.5	89.3	52	66.7	4	7	248	0.00	29.689 
15:00	86.5	86.5	88.6	50	65.6	4	11	270	0.00	29.681 
15:05	86.3	86.3	88.9	52	66.6	4	9	248	0.00	29.681 
15:10	86.3	86.3	88.9	52	66.6	3	9	248	0.00	29.681 
15:15	86.3	86.3	89.6	54	67.7	2	8	248	0.00	29.681 
15:20	86.7	86.7	89.9	53	67.5	2	5	248	0.00	29.681 
15:25	87.0	87.0	90.4	53	67.8	2	6	270	0.00	29.681 
15:30	87.0	87.0	90.4	53	67.8	2	6	270	0.00	29.674 
15:35	87.0	87.0	90.8	54	68.3	3	6	248	0.00	29.674 
15:40	87.0	87.0	90.1	52	67.2	2	6	248	0.00	29.674 
15:45	87.4	87.4	90.7	52	67.6	2	7	248	0.00	29.673 
15:50	87.6	87.6	90.4	50	66.6	3	6	248	0.00	29.673 
15:55	87.4	87.4	90.1	50	66.4	4	11	270	0.00	29.673 
16:00	87.2	87.2	90.1	51	66.8	3	10	248	0.00	29.671 
16:05	87.4	87.4	90.7	52	67.6	1	6	270	0.00	29.671 
16:10	87.0	87.0	90.1	52	67.2	2	5	292	0.00	29.671 
16:15	86.7	86.7	89.3	51	66.4	2	6	248	0.00	29.664 
16:20	87.0	87.0	89.7	51	66.6	3	7	248	0.00	29.664 
16:25	86.7	86.7	89.3	51	66.4	2	9	292	0.00	29.664 
16:30	86.5	86.5	89.3	52	66.7	3	12	248	0.00	29.661 
16:35	86.3	86.3	88.9	52	66.6	2	5	270	0.00	29.661 
16:40	86.1	86.1	88.6	52	66.4	2	5	248	0.00	29.661 
16:45	86.1	86.1	88.9	53	66.9	2	6	270	0.00	29.660 
16:50	86.3	86.3	88.9	52	66.6	3	9	270	0.00	29.660 
16:55	86.5	86.5	89.3	52	66.7	3	7	270	0.00	29.660 
17:00	86.5	86.5	89.3	52	66.7	2	6	270	0.00	29.661 
17:05	86.5	86.5	89.3	52	66.7	2	6	248	0.00	29.661 
17:10	86.3	86.3	88.6	51	66.0	3	6	248	0.00	29.661 
17:15	86.3	86.3	88.6	51	66.0	2	5	248	0.00	29.659 
17:20	86.1	86.1	88.6	52	66.4	2	5	248	0.00	29.659 
17:25	85.9	85.9	88.6	53	66.7	1	7	248	0.00	29.659 
17:30	85.5	85.5	88.3	54	66.9	1	4	225	0.00	29.658 
17:35	85.5	85.5	88.3	54	66.9	1	3	225	0.00	29.658 
17:40	85.5	85.5	88.3	54	66.9	2	11	270	0.00	29.658 
17:45	85.3	85.3	87.7	53	66.2	2	6	225	0.00	29.658 
17:50	85.1	85.1	87.4	53	66.0	2	4	270	0.00	29.658 
17:55	85.1	85.1	87.4	53	66.0	2	7	248	0.00	29.658 
18:00	85.3	85.3	87.7	53	66.2	2	6	225	0.00	29.658 
18:05	85.1	85.1	87.7	54	66.6	1	3	248	0.00	29.658 
18:10	84.7	84.7	87.0	54	66.2	2	5	248	0.00	29.658 
18:15	84.5	84.5	86.7	54	66.0	2	4	248	0.00	29.660 
18:20	84.5	84.5	87.0	55	66.5	1	6	248	0.00	29.660 
18:25	84.3	84.3	86.7	55	66.3	2	5	248	0.00	29.660 
18:30	84.1	84.1	86.7	56	66.7	1	5	248	0.00	29.662 
18:35	84.0	84.0	86.5	56	66.6	1	5	248	0.00	29.662 
18:40	83.8	83.8	86.2	56	66.4	2	5	270	0.00	29.662 
18:45	83.8	83.8	86.2	56	66.4	1	3	248	0.00	29.667 
18:50	83.6	83.6	86.1	57	66.7	2	5	225	0.00	29.667 
18:55	83.4	83.4	85.8	57	66.5	1	3	248	0.00	29.667 
19:00	83.0	83.0	85.3	57	66.2	1	4	248	0.00	29.668 
19:05	83.0	83.0	85.5	58	66.7	2	9	248	0.00	29.668 
19:10	82.8	82.8	85.2	58	66.5	0	3	270	0.00	29.668 
19:15	82.6	82.6	84.9	58	66.3	1	4	270	0.00	29.667 
19:20	82.4	82.4	84.6	58	66.1	1	5	248	0.00	29.667 
19:25	82.2	82.2	84.5	59	66.4	1	3	248	0.00	29.667 
19:30	82.0	82.0	84.4	60	66.7	1	4	248	0.00	29.673 
19:35	81.8	81.8	84.1	60	66.5	0	3	248	0.00	29.673 
19:40	81.6	81.6	83.9	60	66.3	1	3	248	0.00	29.673 
19:45	81.4	81.4	83.8	61	66.6	0	2	248	0.00	29.676 
19:50	81.2	81.2	83.6	62	66.9	0	2	248	0.00	29.676 
19:55	80.9	80.9	83.2	62	66.6	0	3	270	0.00	29.676 
20:00	80.7	80.7	82.9	62	66.4	0	2	248	0.00	29.678 
20:05	80.5	80.5	82.8	63	66.7	0	2	248	0.00	29.678 
20:10	80.3	80.3	82.5	63	66.5	0	3	248	0.00	29.678 
20:15	80.1	80.1	82.4	64	66.8	0	2	248	0.00	29.680 
20:20	79.9	79.9	82.1	64	66.6	0	2	248	0.00	29.680 
20:25	79.8	79.8	82.0	64	66.5	1	4	248	0.00	29.680 
20:30	79.8	79.8	82.1	65	67.0	0	2	315	0.00	29.688 
20:35	79.6	79.6	81.8	65	66.8	0	3	248	0.00	29.688 
20:40	79.4	79.4	81.6	65	66.6	0	2	248	0.00	29.688 
20:45	79.4	79.4	81.6	65	66.6	1	5	248	0.00	29.693 
20:50	79.4	79.4	81.6	66	67.0	0	2	248	0.00	29.693 
20:55	79.2	79.2	81.4	66	66.8	1	3	248	0.00	29.693 
21:00	79.2	79.2	81.5	67	67.3	0	3	248	0.00	29.694 
21:05	79.0	79.0	81.2	67	67.1	0	2	225	0.00	29.694 
21:10	78.8	78.8	80.9	67	66.9	0	5	270	0.00	29.694 
21:15	79.0	79.0	81.2	67	67.1	1	3	225	0.00	29.692 
21:20	78.8	78.8	80.9	67	66.9	0	2	225	0.00	29.692 
21:25	78.8	78.8	80.9	67	66.9	0	3	225	0.00	29.692 
21:30	78.6	78.6	80.7	67	66.7	1	3	248	0.00	29.688 
21:35	78.6	78.6	80.7	68	67.1	1	3	270	0.00	29.688 
21:40	78.6	78.6	80.7	68	67.1	1	2	270	0.00	29.688 
21:45	78.6	78.6	80.7	68	67.1	0	3	270	0.00	29.686 
21:50	78.6	78.6	80.7	68	67.1	1	4	248	0.00	29.686 
21:55	78.5	78.5	80.6	68	67.0	1	3	248	0.00	29.686 
22:00	78.5	78.5	80.6	68	67.0	0	2	248	0.00	29.683 
22:05	78.5	78.5	80.6	68	67.0	1	3	270	0.00	29.683 
22:10	78.6	78.6	80.7	68	67.1	1	5	270	0.00	29.683 
22:15	78.5	78.5	80.6	68	67.0	1	4	270	0.00	29.676 
22:20	78.3	78.3	80.4	69	67.3	0	2	248	0.00	29.676 
22:25	78.1	78.1	80.1	69	67.1	0	1	248	0.00	29.676 
22:30	77.9	77.9	79.9	69	66.9	0	3	225	0.00	29.662 
22:35	77.7	77.7	79.6	69	66.7	0	3	292	0.00	29.662 
22:40	77.7	77.7	79.6	69	66.7	0	4	270	0.00	29.662 
22:45	77.6	77.6	79.5	70	67.0	0	2	248	0.00	29.660 
22:50	77.4	77.4	79.3	70	66.8	0	3	248	0.00	29.660 
22:55	77.4	77.4	79.3	70	66.8	0	2	248	0.00	29.655 
23:00	77.2	77.2	79.0	70	66.6	0	3	0	0.00	29.649 
23:05	77.2	77.2	79.0	71	67.0	0	2	338	0.00	29.644 
23:10	77.0	77.0	78.8	71	66.9	0	3	315	0.00	29.643 
23:15	77.0	77.0	78.8	71	66.9	0	2	248	0.00	29.643 
23:20	76.8	76.8	78.5	72	67.1	0	3	248	0.00	29.642 
23:25	76.8	76.8	78.5	71	66.7	0	3	248	0.00	29.642 
23:30	76.8	76.8	78.5	71	66.7	1	5	248	0.00	29.642 
23:35	76.8	76.8	78.5	72	67.1	0	2	270	0.00	29.641 
23:40	76.7	76.7	78.4	72	67.0	0	2	248	0.00	29.639 
23:45	76.7	76.7	78.4	72	67.0	1	2	248	0.00	29.638 
23:50	76.7	76.7	78.3	73	67.4	0	2	248	0.00	29.635 
23:55	76.7	76.7	78.4	72	67.0	1	6	270	0.00	29.635 

CoCoRaHS
IN-AL-39
A2 Web Hosting
Creative Commons License
GoDaddy
Look for:

loaded 2017-10-17 00:21:41 • last modified 2010-11-18 10:43:29
Privacy PolicyDisclaimer
• wx.awcolley.com is powered by PmWiki v.2002016 •
• all content (unless otherwise noted) © 2017 A W Colley